Time;durP1;ratioP1;P1;durP2;ratioP2;P2;SDS_P1;SDS_P2;PMS_P1;PMS_P2;Temp;Humidity;BMP_temperature;BMP_pressure;BME280_temperature;BME280_humidity;BME280_pressure;Samples;Min_cycle;Max_cycle;Signal;HPM_P1;HPM_P2
2023/01/30 00:02:28;;;;;;;30.70;11.95;;;6.80;50.00;;;;;;6144740;28;20549;-68
2023/01/30 00:05:29;;;;;;;26.42;11.32;;;6.80;50.00;;;;;;6146338;28;20029;-67
2023/01/30 00:08:31;;;;;;;27.08;10.48;;;7.50;50.20;;;;;;6203277;28;20035;-66
2023/01/30 00:11:32;;;;;;;31.85;11.05;;;6.90;49.80;;;;;;6145720;28;20028;-67
2023/01/30 00:14:33;;;;;;;29.02;11.63;;;6.90;49.80;;;;;;6145520;28;20038;-68
2023/01/30 00:17:34;;;;;;;21.58;10.63;;;6.90;49.70;;;;;;6145035;28;20547;-67
2023/01/30 00:20:36;;;;;;;25.48;10.85;;;6.90;49.70;;;;;;6144527;28;20488;-67
2023/01/30 00:23:38;;;;;;;24.60;10.07;;;6.80;49.70;;;;;;6129002;28;20558;-67
2023/01/30 00:26:39;;;;;;;31.05;11.52;;;6.80;49.80;;;;;;6128974;28;20460;-67
2023/01/30 00:29:40;;;;;;;26.60;11.38;;;6.80;49.80;;;;;;6127941;28;20077;-67
2023/01/30 00:32:41;;;;;;;27.58;10.88;;;6.80;49.80;;;;;;6128965;28;20035;-68
2023/01/30 00:35:46;;;;;;;31.35;11.50;;;6.90;49.90;;;;;;6145186;29;20086;-68
2023/01/30 00:38:48;;;;;;;24.35;10.68;;;6.90;49.90;;;;;;6145857;28;20173;-71
2023/01/30 00:48:31;;;;;;;37.70;11.35;;;6.90;49.90;;;;;;6120797;28;20082;-66
2023/01/30 00:51:36;;;;;;;32.63;12.55;;;6.90;49.90;;;;;;6105018;28;20038;-69
2023/01/30 00:54:37;;;;;;;24.02;10.95;;;6.90;50.60;;;;;;6121126;28;20043;-67
2023/01/30 00:57:38;;;;;;;31.38;12.88;;;7.00;50.10;;;;;;6138261;28;20035;-67
2023/01/30 01:00:39;;;;;;;27.02;12.27;;;7.00;50.10;;;;;;6112921;28;20043;-68
2023/01/30 01:03:41;;;;;;;29.90;12.02;;;7.00;50.30;;;;;;6128563;28;20034;-66
2023/01/30 01:06:43;;;;;;;32.22;13.13;;;7.00;50.40;;;;;;6129015;28;20610;-68
2023/01/30 01:09:44;;;;;;;29.48;12.23;;;7.00;50.60;;;;;;6186288;23;20085;-67
2023/01/30 01:12:48;;;;;;;24.35;11.95;;;6.90;50.80;;;;;;6168481;28;20035;-68
2023/01/30 01:15:49;;;;;;;31.90;13.20;;;6.90;51.00;;;;;;6168177;28;20038;-67
2023/01/30 01:18:50;;;;;;;28.42;12.05;;;6.90;51.10;;;;;;6167415;28;20035;-68
2023/01/30 01:21:52;;;;;;;26.55;11.15;;;6.80;51.20;;;;;;6167508;28;20030;-67
2023/01/30 01:24:53;;;;;;;28.73;10.95;;;6.80;51.30;;;;;;6169484;28;20382;-66
2023/01/30 01:27:54;;;;;;;32.15;12.82;;;6.70;51.40;;;;;;6171692;28;20031;-67
2023/01/30 01:30:56;;;;;;;26.73;11.82;;;6.70;51.50;;;;;;6171896;28;20447;-68
2023/01/30 01:33:56;;;;;;;34.90;12.30;;;6.60;51.60;;;;;;6173193;28;20065;-67
2023/01/30 01:36:59;;;;;;;28.20;10.75;;;6.60;51.60;;;;;;6187984;28;20039;-66
2023/01/30 01:43:29;;;;;;;32.17;12.88;;;6.60;51.60;;;;;;6172072;28;20039;-67
2023/01/30 01:46:57;;;;;;;24.90;10.32;;;6.70;51.50;;;;;;6132086;28;20467;-67
2023/01/30 01:49:58;;;;;;;37.58;12.32;;;6.70;52.00;;;;;;6236800;23;20049;-67
2023/01/30 01:53:01;;;;;;;28.52;12.30;;;6.70;51.30;;;;;;6250847;28;20025;-67
2023/01/30 01:56:04;;;;;;;32.40;11.95;;;6.70;51.20;;;;;;6250570;28;20037;-67
2023/01/30 01:59:20;;;;;;;31.45;12.43;;;6.80;51.30;;;;;;6248852;28;20501;-66
2023/01/30 02:02:21;;;;;;;26.60;11.52;;;6.80;51.30;;;;;;6233344;28;20033;-67
2023/01/30 02:05:32;;;;;;;26.13;11.75;;;6.80;51.10;;;;;;6253553;28;20045;-66
2023/01/30 02:08:44;;;;;;;36.90;12.18;;;6.90;51.30;;;;;;6242847;28;20033;-67
2023/01/30 02:11:58;;;;;;;29.25;12.95;;;6.90;51.20;;;;;;6253499;28;20029;-66
2023/01/30 02:15:00;;;;;;;25.83;11.50;;;6.90;51.10;;;;;;6253701;28;20120;-67
2023/01/30 02:18:01;;;;;;;26.17;11.45;;;6.80;51.00;;;;;;6252489;28;20033;-66
2023/01/30 02:21:11;;;;;;;40.67;13.23;;;6.80;51.00;;;;;;6248816;28;20025;-66
2023/01/30 02:24:33;;;;;;;32.40;12.98;;;6.80;51.10;;;;;;6250028;28;20084;-66
2023/01/30 02:27:53;;;;;;;26.90;12.13;;;6.80;51.10;;;;;;6232113;28;20525;-66
2023/01/30 02:31:11;;;;;;;30.02;12.18;;;6.90;51.10;;;;;;6245198;28;20018;-67
2023/01/30 02:34:35;;;;;;;31.17;12.13;;;6.90;51.00;;;;;;6223623;28;20509;-66
2023/01/30 02:38:04;;;;;;;30.90;11.55;;;6.90;50.90;;;;;;6206372;28;20109;-67
2023/01/30 02:41:17;;;;;;;20.05;10.27;;;6.90;50.80;;;;;;6214596;28;20393;-67
2023/01/30 02:44:49;;;;;;;29.25;11.57;;;7.00;50.70;;;;;;6247749;28;20034;-66
2023/01/30 02:47:55;;;;;;;32.80;12.55;;;6.90;50.60;;;;;;6238821;28;20486;-66
2023/01/30 02:51:08;;;;;;;22.55;10.45;;;7.00;50.60;;;;;;6206280;28;20034;-66
2023/01/30 02:54:12;;;;;;;31.30;11.88;;;7.00;50.60;;;;;;6222506;28;20034;-67
2023/01/30 02:57:22;;;;;;;29.48;11.52;;;7.00;50.50;;;;;;6222603;28;20033;-68
2023/01/30 03:00:28;;;;;;;28.45;12.38;;;6.90;51.00;;;;;;6222410;28;20033;-67
2023/01/30 03:04:00;;;;;;;31.10;10.60;;;6.90;50.40;;;;;;6216441;28;20036;-67
2023/01/30 03:07:16;;;;;;;29.63;12.63;;;6.90;50.30;;;;;;6246902;28;20437;-68
2023/01/30 03:10:21;;;;;;;27.25;10.48;;;6.80;50.30;;;;;;6246858;28;20523;-67
2023/01/30 03:13:45;;;;;;;30.10;11.70;;;6.80;50.30;;;;;;6246973;28;20496;-67
2023/01/30 03:16:48;;;;;;;29.63;11.77;;;6.80;50.30;;;;;;6246899;28;20040;-69
2023/01/30 03:19:50;;;;;;;32.65;11.82;;;6.80;50.50;;;;;;6245126;28;20029;-65
2023/01/30 03:22:53;;;;;;;31.02;10.90;;;6.80;50.60;;;;;;6246216;28;20030;-65
2023/01/30 03:25:54;;;;;;;32.55;11.85;;;6.90;50.80;;;;;;6222251;28;20058;-68
2023/01/30 03:28:56;;;;;;;28.17;11.70;;;6.90;50.80;;;;;;6224127;28;20120;-67
2023/01/30 03:31:58;;;;;;;33.72;12.85;;;6.90;50.90;;;;;;6246207;28;20087;-67
2023/01/30 03:34:59;;;;;;;30.45;12.05;;;6.90;50.90;;;;;;6246209;28;20041;-67
2023/01/30 03:38:01;;;;;;;27.05;12.07;;;7.00;50.90;;;;;;6245357;28;20511;-66
2023/01/30 03:41:04;;;;;;;26.95;11.48;;;7.00;51.00;;;;;;6246386;28;20124;-68
2023/01/30 03:44:06;;;;;;;29.73;11.40;;;7.00;50.90;;;;;;6247457;28;20032;-67
2023/01/30 03:47:08;;;;;;;30.35;11.32;;;7.10;50.90;;;;;;6237683;28;20033;-65
2023/01/30 03:50:10;;;;;;;28.95;12.13;;;7.10;50.70;;;;;;6204136;28;20033;-67
2023/01/30 03:53:11;;;;;;;32.83;12.40;;;7.10;50.70;;;;;;6205114;28;20018;-69
2023/01/30 03:56:18;;;;;;;31.95;13.48;;;7.00;50.60;;;;;;6228692;28;20087;-68
2023/01/30 03:59:20;;;;;;;22.65;8.25;;;7.00;50.70;;;;;;6245495;28;20417;-66
2023/01/30 04:02:27;;;;;;;24.93;8.90;;;7.00;50.60;;;;;;6245942;28;20120;-67
2023/01/30 04:05:29;;;;;;;35.53;12.68;;;7.00;50.60;;;;;;6245816;28;20029;-67
2023/01/30 04:08:37;;;;;;;19.63;8.38;;;7.00;50.60;;;;;;6244882;28;20037;-67
2023/01/30 04:11:39;;;;;;;24.30;11.20;;;7.00;50.60;;;;;;6245549;28;20032;-69
2023/01/30 04:14:40;;;;;;;22.88;10.25;;;7.10;50.70;;;;;;6245553;28;20466;-69
2023/01/30 04:18:01;;;;;;;28.40;12.07;;;7.00;50.80;;;;;;6194625;28;20490;-67
2023/01/30 04:21:20;;;;;;;41.33;12.20;;;7.10;50.80;;;;;;6194964;28;20042;-66
2023/01/30 04:24:21;;;;;;;37.30;13.18;;;7.10;50.90;;;;;;6178390;28;20503;-69
2023/01/30 04:27:23;;;;;;;25.88;11.07;;;7.10;51.00;;;;;;6178747;28;20081;-67
2023/01/30 04:30:44;;;;;;;33.80;11.60;;;7.10;51.00;;;;;;6194158;28;20093;-67
2023/01/30 04:34:03;;;;;;;30.77;12.32;;;7.10;51.00;;;;;;6195259;28;20042;-67
2023/01/30 04:37:04;;;;;;;33.50;13.02;;;7.10;51.10;;;;;;6178353;28;20038;-68
2023/01/30 04:40:06;;;;;;;30.85;12.98;;;7.00;51.00;;;;;;6177646;28;20034;-67
2023/01/30 04:43:08;;;;;;;34.90;12.50;;;7.00;51.20;;;;;;6178949;28;20105;-66
2023/01/30 04:46:09;;;;;;;34.38;13.02;;;7.00;51.20;;;;;;6194864;28;20034;-66
2023/01/30 04:49:10;;;;;;;28.02;12.60;;;6.90;51.30;;;;;;6194994;28;20065;-66
2023/01/30 04:52:11;;;;;;;29.15;11.88;;;7.00;51.40;;;;;;6186144;28;20030;-65
2023/01/30 04:55:14;;;;;;;36.97;13.60;;;6.90;51.40;;;;;;6231435;28;20046;-66
2023/01/30 04:58:18;;;;;;;26.25;12.57;;;6.90;51.50;;;;;;6209812;28;20037;-66
2023/01/30 05:01:34;;;;;;;35.42;12.93;;;6.80;51.50;;;;;;6232052;28;20033;-66
2023/01/30 05:04:35;;;;;;;33.20;12.18;;;6.70;51.60;;;;;;6251791;28;20034;-67
2023/01/30 05:07:36;;;;;;;29.60;11.55;;;6.70;51.60;;;;;;6250370;28;20030;-67
2023/01/30 05:10:38;;;;;;;34.58;13.43;;;6.70;51.70;;;;;;6232604;28;20026;-67
2023/01/30 05:13:39;;;;;;;25.55;11.02;;;6.70;51.70;;;;;;6216721;28;20030;-67
2023/01/30 05:16:40;;;;;;;33.38;11.85;;;6.70;51.70;;;;;;6236572;28;20034;-67
2023/01/30 05:19:42;;;;;;;33.15;11.45;;;6.70;51.60;;;;;;6253732;28;20059;-67
2023/01/30 05:22:43;;;;;;;28.60;12.23;;;6.70;51.60;;;;;;6275749;28;20104;-69
2023/01/30 05:25:44;;;;;;;28.50;10.90;;;6.70;51.50;;;;;;6257386;28;20032;-68
2023/01/30 05:28:53;;;;;;;33.10;12.15;;;6.70;51.50;;;;;;6257080;28;20090;-67
2023/01/30 05:31:55;;;;;;;25.50;12.00;;;6.70;51.70;;;;;;6237876;28;20516;-68
2023/01/30 05:34:57;;;;;;;23.58;11.35;;;6.60;51.70;;;;;;6249171;28;20032;-67
2023/01/30 05:37:58;;;;;;;30.50;12.27;;;6.60;51.90;;;;;;6248582;28;20041;-66
2023/01/30 05:41:04;;;;;;;28.67;11.65;;;6.50;52.00;;;;;;6249142;28;20413;-67
2023/01/30 05:44:06;;;;;;;27.92;11.93;;;6.50;52.20;;;;;;6248944;28;20025;-68
2023/01/30 05:47:07;;;;;;;30.90;10.90;;;6.40;52.20;;;;;;6248442;28;20041;-66
2023/01/30 05:50:09;;;;;;;27.02;11.27;;;6.40;52.30;;;;;;6231906;28;20037;-67
2023/01/30 05:53:09;;;;;;;30.92;10.75;;;6.40;52.40;;;;;;6258167;28;20033;-66
2023/01/30 05:56:10;;;;;;;27.50;11.57;;;6.40;52.40;;;;;;6264613;28;20029;-70
2023/01/30 05:59:11;;;;;;;26.73;10.43;;;6.50;52.50;;;;;;6247594;28;20022;-67
2023/01/30 06:02:12;;;;;;;33.30;11.05;;;6.50;52.40;;;;;;6266075;28;20143;-67
2023/01/30 06:05:13;;;;;;;33.65;11.88;;;6.50;52.40;;;;;;6273087;28;20047;-66
2023/01/30 06:08:17;;;;;;;28.45;10.50;;;6.50;52.40;;;;;;6271264;28;20025;-67
2023/01/30 06:11:18;;;;;;;28.27;10.77;;;6.50;52.30;;;;;;6249189;28;20044;-67
2023/01/30 06:14:19;;;;;;;29.48;11.68;;;6.50;52.20;;;;;;6248914;28;20033;-67
2023/01/30 06:17:19;;;;;;;22.15;10.63;;;6.50;52.20;;;;;;6248761;28;20079;-67
2023/01/30 06:20:21;;;;;;;27.85;11.30;;;6.50;52.20;;;;;;6250012;28;20044;-69
2023/01/30 06:23:24;;;;;;;33.03;10.82;;;6.60;52.20;;;;;;6252834;28;20104;-68
2023/01/30 06:26:28;;;;;;;28.23;10.82;;;6.60;52.00;;;;;;6247637;28;20040;-70
2023/01/30 06:33:16;;;;;;;37.00;10.15;;;6.70;52.00;;;;;;6129875;26;20454;-68
2023/01/30 06:36:26;;;;;;;30.63;11.38;;;6.60;51.80;;;;;;6157114;28;20039;-68
2023/01/30 06:39:33;;;;;;;24.42;10.18;;;6.60;51.90;;;;;;6172745;28;20381;-67
2023/01/30 06:42:34;;;;;;;29.98;10.20;;;6.60;51.90;;;;;;6141672;28;20023;-68
2023/01/30 06:45:35;;;;;;;31.73;10.18;;;6.70;51.90;;;;;;6172257;28;20519;-67
2023/01/30 06:48:36;;;;;;;29.95;11.40;;;6.60;51.80;;;;;;6172483;28;20034;-67
2023/01/30 06:51:37;;;;;;;26.40;11.25;;;6.60;51.90;;;;;;6172965;28;20348;-67
2023/01/30 06:54:37;;;;;;;22.83;10.48;;;6.60;51.90;;;;;;6156275;28;20038;-65
2023/01/30 06:57:38;;;;;;;26.77;11.73;;;6.70;52.00;;;;;;6172785;28;20796;-67
2023/01/30 07:00:41;;;;;;;26.40;10.27;;;6.70;51.90;;;;;;6172302;28;20042;-67
2023/01/30 07:03:41;;;;;;;22.15;10.13;;;6.70;51.90;;;;;;6156737;28;20034;-67
2023/01/30 07:06:42;;;;;;;22.45;9.65;;;6.80;51.90;;;;;;6231592;28;20040;-67
2023/01/30 07:09:43;;;;;;;43.13;11.25;;;6.80;51.90;;;;;;6254220;28;20473;-66
2023/01/30 07:12:45;;;;;;;25.90;9.70;;;6.90;52.00;;;;;;6272653;28;20128;-68
2023/01/30 07:15:47;;;;;;;25.55;9.70;;;7.00;51.70;;;;;;6238438;28;20044;-67
2023/01/30 07:18:48;;;;;;;30.48;11.27;;;7.00;51.40;;;;;;6254484;28;20374;-67
2023/01/30 07:21:49;;;;;;;25.60;10.13;;;7.10;51.20;;;;;;6238293;28;20061;-68
2023/01/30 07:24:51;;;;;;;24.17;10.07;;;7.10;51.00;;;;;;6239276;28;20029;-66
2023/01/30 07:27:54;;;;;;;27.40;11.20;;;7.10;50.80;;;;;;6245521;28;20029;-67
2023/01/30 07:30:59;;;;;;;34.90;10.30;;;7.10;50.70;;;;;;6256180;28;20393;-67
2023/01/30 07:34:00;;;;;;;30.23;11.82;;;7.10;50.70;;;;;;6238477;28;20021;-66
2023/01/30 07:37:01;;;;;;;25.10;10.25;;;7.10;50.40;;;;;;6254403;28;20079;-67
2023/01/30 07:40:03;;;;;;;33.90;12.02;;;7.10;50.40;;;;;;6253505;28;20029;-68
2023/01/30 07:43:07;;;;;;;27.77;10.93;;;7.10;50.50;;;;;;6237437;28;20045;-67
2023/01/30 07:46:08;;;;;;;32.88;11.85;;;7.10;50.70;;;;;;6253629;28;20033;-68
2023/01/30 07:49:09;;;;;;;25.48;11.02;;;7.10;50.60;;;;;;6252822;28;20043;-71
2023/01/30 07:52:11;;;;;;;25.38;11.10;;;7.10;50.70;;;;;;6237621;28;20074;-68
2023/01/30 07:55:12;;;;;;;25.58;10.02;;;7.10;50.80;;;;;;6237458;28;20361;-67
2023/01/30 07:58:14;;;;;;;24.45;10.88;;;7.00;51.00;;;;;;6253670;28;20398;-67
2023/01/30 08:01:16;;;;;;;29.52;11.80;;;7.00;51.40;;;;;;6236982;28;20025;-66
2023/01/30 08:04:18;;;;;;;26.55;11.40;;;6.90;51.50;;;;;;6236640;28;20036;-70
2023/01/30 08:07:19;;;;;;;34.17;11.30;;;6.90;51.60;;;;;;6237245;28;20166;-66
2023/01/30 08:10:23;;;;;;;35.55;10.55;;;6.90;51.60;;;;;;6234737;28;20131;-66
2023/01/30 08:13:25;;;;;;;29.02;10.13;;;6.90;51.60;;;;;;6253545;28;20040;-69
2023/01/30 08:16:26;;;;;;;24.55;10.25;;;6.90;51.60;;;;;;6237167;28;20041;-68
2023/01/30 08:19:27;;;;;;;32.38;11.43;;;6.90;51.60;;;;;;6252823;28;20485;-67
2023/01/30 08:22:29;;;;;;;29.05;10.95;;;6.90;51.50;;;;;;6253680;28;20428;-68
2023/01/30 08:25:30;;;;;;;34.92;10.80;;;6.90;51.60;;;;;;6236863;28;20389;-67
2023/01/30 08:28:31;;;;;;;30.83;11.38;;;7.00;51.50;;;;;;6269307;28;20025;-68
2023/01/30 08:31:32;;;;;;;21.90;9.55;;;7.00;51.40;;;;;;6252859;28;20133;-68
2023/01/30 08:34:34;;;;;;;22.98;11.55;;;7.00;51.20;;;;;;6253193;28;20503;-67
2023/01/30 08:37:37;;;;;;;25.92;11.88;;;7.00;51.10;;;;;;6257625;28;20071;-68
2023/01/30 08:40:41;;;;;;;30.85;11.50;;;7.10;51.20;;;;;;6258337;28;20494;-67
2023/01/30 08:43:43;;;;;;;31.55;11.68;;;7.10;51.00;;;;;;6242372;28;20136;-67
2023/01/30 08:46:45;;;;;;;39.72;11.85;;;7.20;51.00;;;;;;6233169;28;20033;-67
2023/01/30 08:50:59;;;;;;;25.42;10.27;;;7.20;50.80;;;;;;6192592;23;20454;-67
2023/01/30 08:53:29;;;;;;;24.52;10.80;;;7.30;50.70;;;;;;6136138;28;20498;-68
2023/01/30 08:56:30;;;;;;;22.48;9.90;;;7.30;50.60;;;;;;6148169;28;20483;-67
2023/01/30 08:59:31;;;;;;;35.75;9.98;;;7.40;50.50;;;;;;6232627;28;20061;-67
2023/01/30 09:02:33;;;;;;;28.95;10.60;;;7.30;50.30;;;;;;6123051;28;20040;-68
2023/01/30 09:05:34;;;;;;;27.55;10.65;;;7.40;50.50;;;;;;6100636;29;20416;-69
2023/01/30 09:08:36;;;;;;;24.20;10.55;;;7.40;50.30;;;;;;6100956;28;20028;-67
2023/01/30 09:11:37;;;;;;;35.20;11.27;;;7.30;50.30;;;;;;6084680;28;20149;-67
2023/01/30 09:14:41;;;;;;;25.98;11.65;;;7.40;50.40;;;;;;6105981;29;20024;-66
2023/01/30 09:17:45;;;;;;;32.03;11.45;;;7.30;50.30;;;;;;6124176;29;20683;-67
2023/01/30 09:20:46;;;;;;;37.75;11.90;;;7.40;50.40;;;;;;6124207;28;20046;-67
2023/01/30 09:23:48;;;;;;;23.65;9.55;;;7.40;50.40;;;;;;6108480;28;20096;-68
2023/01/30 09:26:49;;;;;;;22.15;10.18;;;7.50;50.30;;;;;;6108576;28;20396;-67
2023/01/30 09:30:09;;;;;;;32.05;10.05;;;7.50;50.20;;;;;;6123717;23;20052;-67
2023/01/30 09:33:10;;;;;;;27.08;10.85;;;7.60;50.30;;;;;;6140525;29;20034;-67
2023/01/30 09:36:11;;;;;;;35.47;11.05;;;7.60;50.10;;;;;;6124180;29;20031;-67
2023/01/30 09:39:12;;;;;;;25.77;11.52;;;7.60;50.10;;;;;;6115813;29;20479;-67
2023/01/30 09:42:32;;;;;;;29.70;11.15;;;7.70;50.00;;;;;;6116309;28;20037;-67
2023/01/30 09:45:51;;;;;;;23.77;9.82;;;7.70;49.90;;;;;;6115709;28;20067;-66
2023/01/30 09:48:58;;;;;;;29.20;11.63;;;7.70;49.80;;;;;;6166300;28;20032;-67
2023/01/30 09:52:09;;;;;;;29.83;11.70;;;7.70;49.80;;;;;;6183117;28;20044;-68
2023/01/30 09:55:24;;;;;;;25.23;10.85;;;7.70;49.80;;;;;;6100789;28;20028;-66
2023/01/30 09:58:41;;;;;;;25.73;10.35;;;7.80;49.70;;;;;;6118539;28;20374;-67
2023/01/30 10:01:57;;;;;;;22.80;10.80;;;7.80;49.50;;;;;;6112316;28;20043;-67
2023/01/30 10:05:01;;;;;;;22.73;8.27;;;7.80;49.40;;;;;;6104034;28;20036;-65
2023/01/30 10:08:29;;;;;;;25.48;9.55;;;7.80;49.20;;;;;;6091989;28;20044;-68
2023/01/30 10:12:08;;;;;;;22.33;8.87;;;7.80;49.20;;;;;;6207088;28;20110;-68
2023/01/30 10:15:31;;;;;;;25.10;11.25;;;7.90;49.20;;;;;;6207437;28;20120;-67
2023/01/30 10:22:01;;;;;;;28.00;9.95;;;7.90;49.20;;;;;;4624846;26;20053;-65
2023/01/30 10:25:10;;;;;;;37.85;9.18;;;8.00;49.00;;;;;;6255810;28;20119;-66
2023/01/30 10:28:14;;;;;;;24.88;11.02;;;8.00;48.90;;;;;;6255690;28;20390;-67
2023/01/30 10:31:18;;;;;;;22.67;10.25;;;8.00;48.90;;;;;;6239086;28;20047;-68
2023/01/30 10:34:41;;;;;;;21.88;9.35;;;8.00;48.80;;;;;;6239008;28;20063;-66
2023/01/30 10:37:52;;;;;;;24.52;10.05;;;8.00;48.80;;;;;;6255209;28;20141;-66
2023/01/30 10:41:17;;;;;;;24.40;9.30;;;8.10;48.70;;;;;;6260932;28;20737;-64
2023/01/30 10:44:21;;;;;;;24.25;9.90;;;8.20;48.70;;;;;;6265646;28;20052;-65
2023/01/30 10:47:29;;;;;;;23.77;9.05;;;8.20;48.40;;;;;;6249925;28;20040;-67
2023/01/30 10:50:41;;;;;;;22.02;9.98;;;8.30;48.40;;;;;;6239135;28;20021;-66
2023/01/30 10:53:52;;;;;;;24.67;9.23;;;8.30;48.10;;;;;;6255535;28;20040;-67
2023/01/30 10:57:20;;;;;;;20.15;9.63;;;8.30;48.00;;;;;;6254661;28;20120;-68
2023/01/30 11:00:29;;;;;;;17.77;8.65;;;8.40;48.00;;;;;;6171227;28;20054;-66
2023/01/30 11:03:49;;;;;;;18.00;9.52;;;8.60;47.80;;;;;;6156020;28;20031;-67
2023/01/30 11:06:52;;;;;;;24.17;9.65;;;8.80;47.50;;;;;;6155942;28;20444;-68
2023/01/30 11:09:58;;;;;;;23.83;9.98;;;9.00;47.00;;;;;;6254236;23;20048;-66
2023/01/30 11:13:19;;;;;;;28.95;10.10;;;9.20;46.90;;;;;;6123636;28;20115;-68
2023/01/30 11:16:21;;;;;;;24.70;9.57;;;9.40;46.50;;;;;;6123644;28;20027;-67
2023/01/30 11:19:29;;;;;;;18.35;8.80;;;9.60;46.20;;;;;;6245934;28;20033;-67
2023/01/30 11:22:34;;;;;;;23.70;9.95;;;9.90;45.50;;;;;;6226122;28;20390;-66
2023/01/30 11:25:53;;;;;;;22.40;9.10;;;10.00;44.80;;;;;;6221723;28;20033;-69
2023/01/30 11:28:54;;;;;;;25.50;10.45;;;10.00;44.60;;;;;;6221430;28;20364;-68
2023/01/30 11:32:00;;;;;;;23.05;9.70;;;10.10;44.10;;;;;;6222947;28;20022;-67
2023/01/30 11:35:07;;;;;;;17.67;8.95;;;10.20;43.90;;;;;;6205373;28;20100;-68
2023/01/30 11:38:34;;;;;;;25.52;10.18;;;10.50;43.50;;;;;;6222278;28;20501;-67
2023/01/30 11:41:35;;;;;;;21.02;9.45;;;10.80;43.10;;;;;;6162097;28;20054;-67
2023/01/30 11:44:39;;;;;;;24.35;8.68;;;11.30;42.80;;;;;;6155340;28;20035;-68
2023/01/30 11:47:52;;;;;;;21.77;7.82;;;11.50;41.60;;;;;;6154650;28;20070;-67
2023/01/30 11:51:03;;;;;;;21.17;8.60;;;11.70;41.00;;;;;;6171048;28;20110;-69
2023/01/30 11:54:31;;;;;;;26.08;8.15;;;11.80;40.40;;;;;;6171202;28;20066;-69
2023/01/30 11:57:40;;;;;;;15.40;8.10;;;11.60;40.60;;;;;;6154714;28;20117;-70
2023/01/30 12:00:46;;;;;;;19.40;9.02;;;11.60;40.80;;;;;;6173704;28;20384;-68
2023/01/30 12:03:52;;;;;;;20.63;8.93;;;11.70;40.80;;;;;;6179245;28;20034;-67
2023/01/30 12:07:06;;;;;;;21.00;8.55;;;12.00;40.20;;;;;;6195091;28;20030;-67
2023/01/30 12:10:29;;;;;;;16.25;7.47;;;12.50;39.30;;;;;;6194600;28;20034;-66
2023/01/30 12:13:44;;;;;;;19.83;8.18;;;12.60;38.70;;;;;;6147150;28;20043;-68
2023/01/30 12:17:11;;;;;;;22.10;8.40;;;12.20;39.30;;;;;;6130947;29;20123;-68
2023/01/30 12:20:27;;;;;;;18.35;7.63;;;11.80;39.30;;;;;;6187436;22;20036;-67
2023/01/30 12:24:04;;;;;;;14.98;7.63;;;11.30;39.80;;;;;;6120180;29;20123;-67
2023/01/30 12:27:15;;;;;;;17.77;7.13;;;10.90;40.50;;;;;;6105635;29;20121;-67
2023/01/30 12:30:27;;;;;;;17.65;7.65;;;10.60;41.00;;;;;;6137027;29;20032;-67
2023/01/30 12:33:32;;;;;;;14.55;7.18;;;10.30;41.40;;;;;;6123875;29;20047;-67
2023/01/30 12:36:44;;;;;;;15.93;7.35;;;10.10;41.70;;;;;;6112545;29;20684;-67
2023/01/30 12:40:14;;;;;;;22.48;8.70;;;9.90;42.10;;;;;;6106331;28;20063;-67
2023/01/30 12:43:18;;;;;;;13.93;7.47;;;9.70;42.50;;;;;;6121163;28;20078;-66
2023/01/30 12:46:41;;;;;;;19.15;7.63;;;9.60;42.70;;;;;;6097370;28;20039;-67
2023/01/30 12:50:10;;;;;;;19.45;7.18;;;9.50;42.90;;;;;;6112658;29;20024;-68
2023/01/30 12:53:33;;;;;;;17.27;7.30;;;9.50;43.00;;;;;;6081794;29;20052;-68
2023/01/30 12:56:55;;;;;;;14.05;6.57;;;9.40;43.20;;;;;;6097158;29;20032;-68
2023/01/30 13:00:15;;;;;;;13.10;6.50;;;9.20;43.50;;;;;;6080875;29;20044;-68
2023/01/30 13:03:21;;;;;;;14.57;6.30;;;9.10;43.70;;;;;;6097404;29;20038;-67
2023/01/30 13:06:25;;;;;;;16.25;7.47;;;9.00;43.80;;;;;;6081431;28;20370;-66
2023/01/30 13:10:04;;;;;;;12.45;6.00;;;9.00;44.10;;;;;;6130287;22;20139;-67
2023/01/30 13:13:29;;;;;;;16.33;7.15;;;8.90;44.10;;;;;;6145383;28;20487;-65
2023/01/30 13:16:35;;;;;;;15.05;6.63;;;8.80;44.30;;;;;;6145659;28;20031;-67
2023/01/30 13:19:55;;;;;;;19.65;6.65;;;8.70;44.40;;;;;;6229350;22;20042;-67
2023/01/30 13:23:21;;;;;;;19.23;7.22;;;8.70;44.50;;;;;;6179177;28;20026;-68
2023/01/30 13:26:33;;;;;;;12.88;6.88;;;8.70;44.70;;;;;;6196157;28;20034;-68
2023/01/30 13:29:36;;;;;;;14.75;6.10;;;8.70;44.70;;;;;;6195431;28;20056;-67
2023/01/30 13:32:42;;;;;;;13.07;6.50;;;8.70;44.70;;;;;;6179992;28;20111;-68
2023/01/30 13:36:24;;;;;;;12.23;6.40;;;8.60;44.50;;;;;;6196288;28;20566;-67
2023/01/30 13:39:43;;;;;;;16.48;6.35;;;8.60;44.50;;;;;;6179768;28;20034;-70
2023/01/30 13:43:00;;;;;;;13.05;6.13;;;8.60;45.10;;;;;;6179700;28;20049;-68
2023/01/30 13:46:07;;;;;;;21.42;6.45;;;8.50;44.60;;;;;;6174407;28;20026;-67
2023/01/30 13:49:40;;;;;;;19.65;6.82;;;8.50;44.80;;;;;;6256559;28;20403;-68
2023/01/30 13:52:45;;;;;;;12.40;6.50;;;8.50;45.10;;;;;;6257056;28;20336;-67
2023/01/30 13:56:15;;;;;;;19.58;7.32;;;8.50;45.20;;;;;;6194903;28;20096;-69
2023/01/30 13:59:28;;;;;;;14.40;6.55;;;8.50;45.20;;;;;;6195702;28;20034;-68
2023/01/30 14:02:29;;;;;;;10.98;5.45;;;8.50;45.10;;;;;;6195648;28;20391;-67
2023/01/30 14:05:59;;;;;;;18.40;7.25;;;8.50;45.10;;;;;;6195278;28;20062;-68
2023/01/30 14:09:04;;;;;;;12.27;6.22;;;8.50;45.10;;;;;;6250008;23;20052;-67
2023/01/30 14:12:05;;;;;;;17.77;7.90;;;8.60;45.20;;;;;;6224801;28;20080;-67
2023/01/30 14:15:12;;;;;;;13.23;6.47;;;8.60;45.00;;;;;;6223547;28;20449;-69
2023/01/30 14:18:22;;;;;;;14.43;6.45;;;8.60;45.00;;;;;;6224596;28;20030;-68
2023/01/30 14:21:26;;;;;;;15.27;7.20;;;8.60;45.10;;;;;;6224877;28;20025;-68
2023/01/30 14:24:28;;;;;;;15.45;6.07;;;8.60;45.00;;;;;;6224770;28;20057;-67
2023/01/30 14:27:30;;;;;;;14.27;6.13;;;8.60;44.90;;;;;;6253841;28;20829;-69
2023/01/30 14:30:47;;;;;;;13.38;5.72;;;8.60;44.80;;;;;;6248461;28;20043;-66
2023/01/30 14:33:50;;;;;;;10.60;5.45;;;8.70;44.80;;;;;;6246904;28;20104;-69
2023/01/30 14:36:51;;;;;;;20.23;5.80;;;8.70;44.70;;;;;;6248605;28;20109;-66
2023/01/30 14:39:54;;;;;;;14.05;5.70;;;8.70;44.80;;;;;;6263723;28;20049;-69
2023/01/30 14:43:19;;;;;;;16.88;6.22;;;8.70;44.70;;;;;;6248747;28;20327;-67
2023/01/30 14:46:20;;;;;;;12.57;5.00;;;8.70;45.30;;;;;;6263566;28;20065;-66
2023/01/30 14:49:25;;;;;;;14.13;5.47;;;8.80;44.70;;;;;;6249602;28;20033;-67
2023/01/30 14:52:37;;;;;;;11.20;5.03;;;8.70;44.40;;;;;;6273365;28;20025;-69
2023/01/30 14:55:38;;;;;;;17.58;5.50;;;8.70;44.50;;;;;;6273044;28;20025;-66
2023/01/30 14:58:48;;;;;;;13.45;6.22;;;8.70;44.60;;;;;;6272432;28;20432;-67
2023/01/30 15:01:52;;;;;;;18.42;5.50;;;8.70;44.60;;;;;;6272719;28;20544;-67
2023/01/30 15:05:17;;;;;;;14.00;5.93;;;8.60;44.60;;;;;;6272975;28;20025;-68
2023/01/30 15:08:24;;;;;;;11.98;5.95;;;8.60;44.70;;;;;;6271337;28;20477;-67
2023/01/30 15:11:31;;;;;;;12.93;5.93;;;8.70;44.70;;;;;;6280944;28;20029;-65
2023/01/30 15:14:50;;;;;;;14.27;4.93;;;8.70;44.60;;;;;;6284287;28;20029;-68
2023/01/30 15:17:57;;;;;;;9.07;4.57;;;8.70;44.60;;;;;;6277347;28;20025;-67
2023/01/30 15:21:30;;;;;;;15.52;5.85;;;8.70;44.60;;;;;;6256053;28;20033;-68
2023/01/30 15:24:37;;;;;;;11.15;5.78;;;8.60;44.60;;;;;;6247514;28;20038;-65
2023/01/30 15:28:09;;;;;;;12.40;5.93;;;8.60;44.60;;;;;;6246196;28;20128;-65
2023/01/30 15:31:22;;;;;;;12.43;5.55;;;8.50;44.70;;;;;;6247398;28;20264;-68
2023/01/30 15:34:26;;;;;;;12.48;5.30;;;8.50;44.90;;;;;;6247681;28;20067;-66
2023/01/30 15:37:51;;;;;;;16.85;5.35;;;8.40;44.90;;;;;;6247562;28;20029;-69
2023/01/30 15:40:53;;;;;;;12.60;6.28;;;8.40;45.00;;;;;;6262206;28;20439;-66
2023/01/30 15:44:13;;;;;;;11.15;5.65;;;8.40;45.10;;;;;;6247134;28;20055;-67
2023/01/30 15:47:43;;;;;;;10.50;5.32;;;8.40;45.10;;;;;;6262247;28;20032;-67
2023/01/30 15:50:53;;;;;;;10.77;5.20;;;8.40;45.10;;;;;;6250706;28;20036;-67
2023/01/30 15:53:56;;;;;;;17.35;5.60;;;8.30;45.10;;;;;;6247045;28;20457;-69
2023/01/30 15:56:59;;;;;;;12.05;5.15;;;8.40;45.20;;;;;;6246210;28;20064;-66
2023/01/30 16:00:03;;;;;;;11.40;5.53;;;8.30;45.20;;;;;;6245211;28;20048;-67
2023/01/30 16:03:19;;;;;;;13.70;6.20;;;8.30;45.30;;;;;;6245614;28;20087;-67
2023/01/30 16:06:34;;;;;;;11.32;5.63;;;8.30;45.30;;;;;;6246855;28;20033;-68
2023/01/30 16:09:34;;;;;;;15.18;5.85;;;8.30;45.30;;;;;;6245891;28;20492;-66
2023/01/30 16:12:39;;;;;;;10.82;5.80;;;8.20;45.30;;;;;;6245899;28;20029;-68
2023/01/30 16:16:12;;;;;;;13.95;5.88;;;8.20;45.40;;;;;;6246782;28;20025;-68
2023/01/30 16:19:28;;;;;;;18.77;6.10;;;8.20;45.50;;;;;;6246167;28;20754;-66
2023/01/30 16:22:34;;;;;;;12.43;6.05;;;8.20;45.60;;;;;;6229456;28;20033;-67
2023/01/30 16:25:34;;;;;;;11.50;4.63;;;8.20;45.50;;;;;;6246318;28;20033;-67
2023/01/30 16:28:35;;;;;;;12.60;5.60;;;8.10;45.50;;;;;;6245945;28;20024;-68